Airfield :
LOGIN :

Register | Disclaimer

   EN    FR    IT 

 










Legend :    VFR   Marginal VFR   IFR   Intensive IFR   Very Intensive IFR
Visi :
Ceiling :
>= 8 km
>= 3000ft
5 to 8 km
1000 to 3000 ft
1500m to 5 km
500 to 1000 ft
800 to 1500m
200 to 500 ft
< 800m
< 200 ft
Symbols :   Thunderstorms  Fog  Heavy snow  Heavy precipitations  Wind > 20 kt
SIGMETs :     Misc.  Thunderstorms  Icing  Turbulence  Mountain Waves  Volcanic Ashes






- Airport Elevation : 41 ft
- IATA code : PFO


LCPH - Pafos Int.

CURRENT METAR :
  • 051030Z 14013KT CAVOK 22/14 Q1009

EXPIRED METARs :
  • 051000Z 13015KT CAVOK 23/11 Q1008
  • 050930Z 12016KT CAVOK 24/10 Q1008
  • 050900Z 12018G28KT CAVOK 24/10 Q1007
  • 050830Z 11020KT CAVOK 25/08 Q1007

TAF TAF LCPH
Valid from the 05 at 06:00 until the 06 at 06:00 UTC


050530Z 0506/0606 12027G37KT 9999 FEW030
BECMG 0510/0514 26012KT
BECMG 0515/0519 01008KT



MET'MAP, your aeronautical weather chart ! - Copyright ORBIFLY December 2007 - Disclaimer

ORBIFLY MET'MAP TEAM :

Programming & Development : Alexandra Zaïnal
Concept & original design : Baudouin d'Aumeries
Assistance for programming : Marc-Olivier Méhu
Technical & hardware support : Manuel Goepfert

Contact : metmap@orbifly.com




SOURCES & CREDITS :

   NOAA